Terminal Aerodrome Forecast
Issued by NWS Duluth, MN

Home | Current Version | Previous Version | Text Only | Print | Product List | Glossary On
Versions: 1 2 3 4 5 6 7 8 9 10 11 12 13 14 15 16 17 18 19 20 21 22 23 24 25
000
FTUS43 KDLH 022336
TAFINL
TAF
KINL 022336Z 0300/0324 25005KT P6SM SCT060
     FM030300 24004KT P6SM VCSH BKN050
      TEMPO 0304/0307 6SM -TSRA BKN035CB
     FM031000 25004KT P6SM SCT050
     FM031500 32011KT P6SM SCT050
     FM032300 35006KT P6SM FEW060=

USA.gov is the U.S. government's official web portal to all federal, state and local government web resources and services.